createdAt,value
2018-07-15T00:01:07.155Z,2.00
2018-07-15T00:03:34.618Z,2.30
2018-07-15T00:06:02.016Z,2.20
2018-07-15T00:08:29.420Z,2.43
2018-07-15T00:10:56.824Z,2.30
2018-07-15T00:13:24.198Z,2.60
2018-07-15T00:15:51.611Z,2.10
2018-07-15T00:18:19.067Z,2.30
2018-07-15T00:20:46.477Z,2.60
2018-07-15T00:23:13.894Z,2.20
2018-07-15T00:25:41.304Z,2.27
2018-07-15T00:28:08.719Z,2.10
2018-07-15T00:30:36.151Z,2.67
2018-07-15T00:33:03.601Z,2.80
2018-07-15T00:35:30.984Z,2.10
2018-07-15T00:37:58.563Z,2.07
2018-07-15T00:40:25.979Z,2.80
2018-07-15T00:42:53.415Z,2.53
2018-07-15T00:45:20.887Z,2.90
2018-07-15T00:47:48.345Z,3.17
2018-07-15T00:50:15.824Z,2.73
2018-07-15T00:52:43.231Z,2.50
2018-07-15T00:55:10.627Z,2.93
2018-07-15T00:57:38.049Z,2.57
2018-07-15T01:00:05.724Z,2.50
2018-07-15T01:02:33.279Z,2.90
2018-07-15T01:05:00.854Z,2.77
2018-07-15T01:07:28.276Z,3.03
2018-07-15T01:09:55.655Z,2.93
2018-07-15T01:12:23.063Z,2.90
2018-07-15T01:14:50.488Z,2.63
2018-07-15T01:17:17.891Z,2.90
2018-07-15T01:19:45.319Z,2.90
2018-07-15T01:22:12.719Z,3.20
2018-07-15T01:24:40.097Z,2.70
2018-07-15T01:27:07.523Z,2.57
2018-07-15T01:29:34.903Z,2.83
2018-07-15T01:32:02.295Z,2.50
2018-07-15T01:34:29.706Z,3.00
2018-07-15T01:36:57.075Z,2.97
2018-07-15T01:39:24.467Z,2.53
2018-07-15T01:41:52.483Z,2.90
2018-07-15T01:44:19.872Z,2.80
2018-07-15T01:46:47.287Z,3.17
2018-07-15T01:49:14.696Z,3.37
2018-07-15T01:51:42.119Z,3.10
2018-07-15T01:54:09.529Z,2.97
2018-07-15T01:56:36.926Z,3.20
2018-07-15T01:59:04.587Z,2.90
2018-07-15T02:01:31.999Z,3.10
2018-07-15T02:03:59.383Z,3.23
2018-07-15T02:06:27.051Z,2.97
2018-07-15T02:08:54.466Z,2.77
2018-07-15T02:11:21.848Z,3.00
2018-07-15T02:13:49.228Z,3.30
2018-07-15T02:16:16.632Z,3.40
2018-07-15T02:18:44.035Z,3.07
2018-07-15T02:21:11.427Z,3.30
2018-07-15T02:23:38.802Z,2.90
2018-07-15T02:26:06.191Z,3.77
2018-07-15T02:28:33.594Z,3.03
2018-07-15T02:31:00.988Z,3.40
2018-07-15T02:33:28.362Z,3.97
2018-07-15T02:35:55.751Z,3.57
2018-07-15T02:38:23.195Z,3.90
2018-07-15T02:40:50.602Z,3.60
2018-07-15T02:43:17.988Z,2.90
2018-07-15T02:45:45.397Z,3.60
2018-07-15T02:48:12.808Z,3.63
2018-07-15T02:50:40.199Z,3.57
2018-07-15T02:53:07.576Z,3.53
2018-07-15T02:55:34.976Z,3.50
2018-07-15T02:58:02.359Z,3.50
2018-07-15T03:00:29.772Z,3.57
2018-07-15T03:02:58.042Z,4.20
2018-07-15T03:05:25.427Z,3.47
2018-07-15T03:07:53.060Z,3.60
2018-07-15T03:10:20.463Z,3.60
2018-07-15T03:12:47.916Z,3.67
2018-07-15T03:15:15.319Z,3.50
2018-07-15T03:17:42.699Z,3.50
2018-07-15T03:20:10.159Z,3.37
2018-07-15T03:22:37.573Z,3.27
2018-07-15T03:25:04.972Z,3.87
2018-07-15T03:27:32.368Z,3.43
2018-07-15T03:29:59.768Z,3.40
2018-07-15T03:32:27.155Z,3.73
2018-07-15T03:34:54.534Z,3.43
2018-07-15T03:37:21.933Z,3.63
2018-07-15T03:39:49.314Z,3.37
2018-07-15T03:42:16.711Z,4.33
2018-07-15T03:44:44.072Z,3.50
2018-07-15T03:47:11.443Z,3.97
2018-07-15T03:49:38.830Z,3.47
2018-07-15T03:52:06.265Z,4.00
2018-07-15T03:54:33.646Z,3.90
2018-07-15T03:57:01.079Z,3.57
2018-07-15T03:59:28.476Z,4.03
2018-07-15T04:01:55.864Z,3.67
2018-07-15T04:04:23.256Z,3.53
2018-07-15T04:06:50.659Z,3.73
2018-07-15T04:09:18.065Z,3.73
2018-07-15T04:11:45.464Z,4.00
2018-07-15T04:14:12.868Z,3.90
2018-07-15T04:16:40.265Z,3.70
2018-07-15T04:19:07.684Z,4.27
2018-07-15T04:21:35.099Z,3.77
2018-07-15T04:24:02.484Z,4.20
2018-07-15T04:26:29.867Z,3.80
2018-07-15T04:28:57.255Z,4.07
2018-07-15T04:31:24.613Z,4.20
2018-07-15T04:33:52.020Z,3.87
2018-07-15T04:36:19.450Z,3.77
2018-07-15T04:38:46.865Z,3.80
2018-07-15T04:41:14.474Z,3.70
2018-07-15T04:43:41.892Z,4.60
2018-07-15T04:46:09.296Z,4.10
2018-07-15T04:48:36.710Z,3.93
2018-07-15T04:51:04.084Z,4.33
2018-07-15T04:53:31.461Z,4.53
2018-07-15T04:55:58.880Z,4.30
2018-07-15T04:58:26.283Z,4.53
2018-07-15T05:00:53.756Z,4.63
2018-07-15T05:03:21.158Z,3.90
2018-07-15T05:05:48.563Z,5.00
2018-07-15T05:08:15.966Z,4.07
2018-07-15T05:10:43.362Z,3.90
2018-07-15T05:13:10.762Z,4.40
2018-07-15T05:15:38.155Z,4.33
2018-07-15T05:18:05.591Z,4.80
2018-07-15T05:20:33.055Z,4.33
2018-07-15T05:23:00.444Z,4.60
2018-07-15T05:25:27.825Z,4.77
2018-07-15T05:27:55.207Z,5.10
2018-07-15T05:30:22.628Z,4.23
2018-07-15T05:32:50.058Z,4.50
2018-07-15T05:35:18.184Z,4.80
2018-07-15T05:37:45.596Z,4.63
2018-07-15T05:40:12.995Z,4.60
2018-07-15T05:42:40.408Z,4.83
2018-07-15T05:45:07.882Z,4.73
2018-07-15T05:47:35.311Z,4.87
2018-07-15T05:50:02.890Z,5.10
2018-07-15T05:52:30.323Z,4.57
2018-07-15T05:54:57.721Z,4.83
2018-07-15T05:57:25.083Z,4.93
2018-07-15T05:59:55.673Z,5.20
2018-07-15T06:02:23.120Z,4.90
2018-07-15T06:04:50.531Z,4.63
2018-07-15T06:07:17.943Z,4.03
2018-07-15T06:09:45.355Z,4.53
2018-07-15T06:12:12.839Z,4.63
2018-07-15T06:14:40.246Z,3.90
2018-07-15T06:17:07.717Z,4.93
2018-07-15T06:19:35.109Z,4.57
2018-07-15T06:22:02.629Z,4.33
2018-07-15T06:24:30.061Z,3.83
2018-07-15T06:26:57.508Z,4.47
2018-07-15T06:29:24.967Z,3.87
2018-07-15T06:31:52.417Z,3.97
2018-07-15T06:34:19.948Z,3.87
2018-07-15T06:36:47.966Z,3.97
2018-07-15T06:39:15.527Z,4.10
2018-07-15T06:41:42.952Z,3.73
2018-07-15T06:44:10.352Z,4.10
2018-07-15T06:46:37.780Z,3.80
2018-07-15T06:49:05.242Z,4.10
2018-07-15T06:51:32.615Z,3.50
2018-07-15T06:54:00.080Z,4.03
2018-07-15T06:56:27.507Z,3.90
2018-07-15T06:58:54.920Z,3.95
2018-07-15T07:01:22.419Z,3.58
2018-07-15T07:03:49.843Z,4.30
2018-07-15T07:06:17.357Z,3.67
2018-07-15T07:08:44.881Z,3.50
2018-07-15T07:11:12.272Z,3.87
2018-07-15T07:13:39.671Z,4.08
2018-07-15T07:16:07.115Z,4.25
2018-07-15T07:18:34.536Z,4.22
2018-07-15T07:21:02.084Z,3.58
2018-07-15T07:23:29.601Z,3.92
2018-07-15T07:25:57.057Z,3.85
2018-07-15T07:28:24.577Z,3.62
2018-07-15T07:30:52.035Z,3.37
2018-07-15T07:33:19.466Z,3.62
2018-07-15T07:35:46.920Z,3.65
2018-07-15T07:38:14.331Z,3.92
2018-07-15T07:40:41.738Z,3.40
2018-07-15T07:43:09.191Z,3.05
2018-07-15T07:45:36.599Z,2.90
2018-07-15T07:48:04.107Z,3.20
2018-07-15T07:50:31.715Z,2.50
2018-07-15T07:52:59.099Z,2.70
2018-07-15T07:55:26.524Z,2.62
2018-07-15T07:57:53.920Z,2.75
2018-07-15T08:00:21.324Z,2.47
2018-07-15T08:02:48.728Z,1.80
2018-07-15T08:05:16.356Z,2.17
2018-07-15T08:07:43.780Z,1.50
2018-07-15T08:10:11.099Z,2.10
2018-07-15T08:12:38.502Z,1.80
2018-07-15T08:15:05.985Z,2.07
2018-07-15T08:17:33.325Z,2.27
2018-07-15T08:20:00.717Z,1.70
2018-07-15T08:22:28.128Z,2.37
2018-07-15T08:24:55.521Z,2.23
2018-07-15T08:27:22.992Z,2.10
2018-07-15T08:30:01.969Z,2.03
2018-07-15T08:32:29.373Z,2.60
2018-07-15T08:34:57.001Z,2.07
2018-07-15T08:37:24.300Z,2.17
2018-07-15T08:39:52.123Z,2.30
2018-07-15T08:42:19.507Z,2.00
2018-07-15T08:44:46.890Z,2.20
2018-07-15T08:47:14.265Z,2.10
2018-07-15T08:49:41.700Z,2.20
2018-07-15T08:52:09.184Z,1.95
2018-07-15T08:54:36.617Z,1.92
2018-07-15T08:57:04.025Z,1.70
2018-07-15T08:59:31.495Z,2.27
2018-07-15T09:01:58.932Z,2.00
2018-07-15T09:04:26.395Z,1.77
2018-07-15T09:06:54.036Z,1.98
2018-07-15T09:09:21.448Z,1.90
2018-07-15T09:11:48.838Z,1.67
2018-07-15T09:14:16.272Z,1.90
2018-07-15T09:16:43.683Z,1.82
2018-07-15T09:19:11.053Z,1.90
2018-07-15T09:21:38.456Z,1.77
2018-07-15T09:24:06.065Z,1.70
2018-07-15T09:26:33.483Z,1.75
2018-07-15T09:29:00.926Z,2.37
2018-07-15T09:31:28.355Z,1.85
2018-07-15T09:33:55.744Z,2.47
2018-07-15T09:36:23.130Z,2.17
2018-07-15T09:38:50.515Z,1.82
2018-07-15T09:41:17.912Z,2.20
2018-07-15T09:43:45.336Z,1.87
2018-07-15T09:46:12.730Z,1.80
2018-07-15T09:48:40.106Z,1.90
2018-07-15T09:51:07.499Z,1.70
2018-07-15T09:53:34.887Z,2.00
2018-07-15T09:56:02.320Z,2.02
2018-07-15T09:58:29.725Z,1.90
2018-07-15T10:00:57.355Z,1.80
2018-07-15T10:03:25.928Z,2.00
2018-07-15T10:05:53.323Z,1.80
2018-07-15T10:08:21.568Z,1.70
2018-07-15T10:10:48.935Z,1.52
2018-07-15T10:13:16.340Z,1.40
2018-07-15T10:15:43.755Z,1.75
2018-07-15T10:18:11.115Z,1.92
2018-07-15T10:20:38.499Z,1.80
2018-07-15T10:23:05.939Z,1.35
2018-07-15T10:25:33.306Z,1.62
2018-07-15T10:28:01.682Z,1.77
2018-07-15T10:30:29.103Z,1.52
2018-07-15T10:32:56.497Z,1.50
2018-07-15T10:35:23.877Z,1.70
2018-07-15T10:37:51.313Z,1.30
2018-07-15T10:40:18.684Z,1.90
2018-07-15T10:42:46.060Z,1.70
2018-07-15T10:45:13.416Z,1.90
2018-07-15T10:47:40.780Z,1.50
2018-07-15T10:50:08.367Z,1.62
2018-07-15T10:52:35.739Z,1.92
2018-07-15T10:55:03.856Z,2.00
2018-07-15T10:57:31.247Z,1.90
2018-07-15T10:59:58.654Z,1.32
2018-07-15T11:02:26.064Z,1.57
2018-07-15T11:04:53.466Z,1.70
2018-07-15T11:07:20.908Z,1.92
2018-07-15T11:09:48.296Z,1.70
2018-07-15T11:12:15.704Z,1.60
2018-07-15T11:14:43.164Z,1.77
2018-07-15T11:17:10.559Z,2.00
2018-07-15T11:19:37.983Z,2.15
2018-07-15T11:22:05.477Z,2.20
2018-07-15T11:24:32.851Z,1.60
2018-07-15T11:27:00.305Z,2.27
2018-07-15T11:29:27.954Z,1.75
2018-07-15T11:31:55.375Z,1.90
2018-07-15T11:34:22.821Z,1.75
2018-07-15T11:36:50.208Z,1.80
2018-07-15T11:39:17.680Z,1.80
2018-07-15T11:41:45.052Z,1.87
2018-07-15T11:44:12.467Z,1.92
2018-07-15T11:46:39.908Z,1.70
2018-07-15T11:49:07.297Z,1.70
2018-07-15T11:51:34.753Z,1.67
2018-07-15T11:54:02.150Z,1.50
2018-07-15T11:56:29.744Z,1.60
2018-07-15T11:58:57.144Z,1.80
2018-07-15T12:01:24.573Z,1.67
2018-07-15T12:03:52.919Z,1.87
2018-07-15T12:06:20.358Z,1.60
2018-07-15T12:08:47.807Z,1.60
2018-07-15T12:11:15.703Z,1.65
2018-07-15T12:13:43.172Z,1.98
2018-07-15T12:16:10.641Z,1.62
2018-07-15T12:18:38.627Z,1.65
2018-07-15T12:21:06.510Z,1.62
2018-07-15T12:23:33.919Z,1.62
2018-07-15T12:26:01.402Z,1.80
2018-07-15T12:28:28.841Z,1.50
2018-07-15T12:30:56.332Z,1.67
2018-07-15T12:33:23.765Z,1.67
2018-07-15T12:35:51.146Z,1.77
2018-07-15T12:38:18.564Z,1.75
2018-07-15T12:40:46.029Z,1.52
2018-07-15T12:43:13.403Z,1.82
2018-07-15T12:45:40.834Z,1.62
2018-07-15T12:48:08.427Z,1.50
2018-07-15T12:50:35.944Z,1.65
2018-07-15T12:53:03.452Z,1.35
2018-07-15T12:55:30.912Z,1.67
2018-07-15T12:57:58.329Z,1.70
2018-07-15T13:00:25.815Z,1.90
2018-07-15T13:02:53.238Z,1.60
2018-07-15T13:05:20.631Z,1.55
2018-07-15T13:07:48.054Z,1.57
2018-07-15T13:10:15.476Z,1.72
2018-07-15T13:12:42.921Z,1.47
2018-07-15T13:15:10.335Z,1.60
2018-07-15T13:17:37.830Z,1.90
2018-07-15T13:20:05.301Z,1.60
2018-07-15T13:22:32.728Z,1.87
2018-07-15T13:25:00.127Z,1.60
2018-07-15T13:27:27.551Z,1.65
2018-07-15T13:29:55.022Z,1.57
2018-07-15T13:32:22.440Z,1.70
2018-07-15T13:34:49.899Z,1.45
2018-07-15T13:37:17.315Z,1.42
2018-07-15T13:39:44.760Z,1.50
2018-07-15T13:42:12.142Z,1.77
2018-07-15T13:44:39.550Z,1.47
2018-07-15T13:47:07.008Z,1.52
2018-07-15T13:49:34.487Z,1.82
2018-07-15T13:52:01.903Z,1.50
2018-07-15T13:54:29.339Z,1.80
2018-07-15T13:56:56.829Z,1.17
2018-07-15T13:59:24.415Z,1.40
2018-07-15T14:01:51.839Z,1.40
2018-07-15T14:04:19.297Z,1.20
2018-07-15T14:06:46.852Z,1.40
2018-07-15T14:09:14.219Z,1.47
2018-07-15T14:11:41.614Z,1.55
2018-07-15T14:14:09.057Z,1.65
2018-07-15T14:16:36.507Z,1.55
2018-07-15T14:19:03.992Z,1.37
2018-07-15T14:21:31.490Z,1.70
2018-07-15T14:23:58.905Z,1.50
2018-07-15T14:26:26.363Z,1.25
2018-07-15T14:28:53.813Z,1.40
2018-07-15T14:31:21.179Z,1.52
2018-07-15T14:33:48.553Z,1.30
2018-07-15T14:36:15.968Z,1.50
2018-07-15T14:38:43.439Z,1.30
2018-07-15T14:41:10.957Z,1.40
2018-07-15T14:43:38.615Z,1.37
2018-07-15T14:46:06.016Z,1.47
2018-07-15T14:48:33.424Z,1.50
2018-07-15T14:51:01.434Z,1.12
2018-07-15T14:53:30.539Z,1.20
2018-07-15T14:55:58.690Z,1.32
2018-07-15T14:58:26.104Z,1.30
2018-07-15T15:00:53.499Z,1.30
2018-07-15T15:03:20.940Z,1.10
2018-07-15T15:05:48.391Z,1.17
2018-07-15T15:08:15.969Z,1.40
2018-07-15T15:10:43.392Z,1.20
2018-07-15T15:13:10.786Z,1.30
2018-07-15T15:15:38.159Z,1.20
2018-07-15T15:18:05.563Z,1.17
2018-07-15T15:20:32.991Z,1.40
2018-07-15T15:23:00.365Z,1.62
2018-07-15T15:25:27.858Z,1.30
2018-07-15T15:27:56.266Z,1.40
2018-07-15T15:30:23.768Z,1.40
2018-07-15T15:32:51.308Z,1.32
2018-07-15T15:35:18.711Z,1.80
2018-07-15T15:37:46.119Z,1.10
2018-07-15T15:40:13.564Z,1.42
2018-07-15T15:42:40.979Z,1.10
2018-07-15T15:45:08.455Z,1.30
2018-07-15T15:47:35.884Z,2.25
2018-07-15T15:50:03.681Z,4.03
2018-07-15T15:52:31.485Z,6.92
2018-07-15T15:54:58.896Z,25.08
2018-07-15T15:57:26.532Z,6.58
2018-07-15T15:59:53.907Z,2.30
2018-07-15T16:02:21.310Z,1.75
2018-07-15T16:04:48.672Z,2.10
2018-07-15T16:07:16.055Z,2.47
2018-07-15T16:09:43.446Z,1.95
2018-07-15T16:12:10.911Z,1.72
2018-07-15T16:14:38.299Z,1.57
2018-07-15T16:17:05.746Z,1.87
2018-07-15T16:19:33.131Z,1.30
2018-07-15T16:22:00.559Z,1.40
2018-07-15T16:24:28.257Z,1.30
2018-07-15T16:26:55.700Z,1.50
2018-07-15T16:29:23.120Z,1.42
2018-07-15T16:31:50.496Z,1.32
2018-07-15T16:34:18.008Z,2.02
2018-07-15T16:36:45.460Z,1.65
2018-07-15T16:39:12.912Z,9.43
2018-07-15T16:41:40.315Z,7.03
2018-07-15T16:44:07.779Z,4.97
2018-07-15T16:46:35.348Z,5.25
2018-07-15T16:49:02.756Z,3.92
2018-07-15T16:51:30.394Z,2.00
2018-07-15T16:53:57.801Z,1.60
2018-07-15T16:56:25.385Z,1.52
2018-07-15T16:58:52.811Z,4.50
2018-07-15T17:01:20.249Z,4.00
2018-07-15T17:03:47.667Z,7.35
2018-07-15T17:06:15.069Z,5.50
2018-07-15T17:08:42.502Z,10.63
2018-07-15T17:11:09.943Z,4.05
2018-07-15T17:13:37.341Z,1.70
2018-07-15T17:16:04.795Z,1.50
2018-07-15T17:18:32.314Z,1.10
2018-07-15T17:20:59.693Z,1.35
2018-07-15T17:23:27.124Z,6.47
2018-07-15T17:25:54.518Z,3.50
2018-07-15T17:28:21.904Z,1.42
2018-07-15T17:30:49.476Z,1.55
2018-07-15T17:33:16.888Z,1.22
2018-07-15T17:35:44.259Z,0.93
2018-07-15T17:38:11.622Z,0.90
2018-07-15T17:40:39.105Z,0.78
2018-07-15T17:43:07.732Z,1.05
2018-07-15T17:45:35.145Z,0.90
2018-07-15T17:48:02.606Z,1.32
2018-07-15T17:50:30.025Z,1.12
2018-07-15T17:52:57.434Z,1.20
2018-07-15T17:55:24.895Z,0.90
2018-07-15T17:57:52.303Z,0.70
2018-07-15T18:00:19.752Z,1.05
2018-07-15T18:02:47.398Z,1.10
2018-07-15T18:05:14.838Z,0.95
2018-07-15T18:07:42.235Z,0.85
2018-07-15T18:10:09.642Z,1.12
2018-07-15T18:12:37.119Z,1.00
2018-07-15T18:15:04.561Z,1.10
2018-07-15T18:17:31.942Z,0.82
2018-07-15T18:19:59.431Z,0.88
2018-07-15T18:22:26.872Z,0.95
2018-07-15T18:24:54.389Z,0.80
2018-07-15T18:27:22.266Z,1.05
2018-07-15T18:29:49.597Z,0.82
2018-07-15T18:32:17.050Z,0.90
2018-07-15T18:34:44.593Z,0.90
2018-07-15T18:37:11.983Z,1.00
2018-07-15T18:39:39.372Z,1.10
2018-07-15T18:42:06.747Z,0.95
2018-07-15T18:44:34.115Z,1.30
2018-07-15T18:47:01.537Z,0.80
2018-07-15T18:49:29.079Z,0.90
2018-07-15T18:51:56.716Z,0.90
2018-07-15T18:54:24.111Z,1.00
2018-07-15T18:56:51.560Z,1.15
2018-07-15T18:59:19.021Z,1.12
2018-07-15T19:01:46.457Z,0.78
2018-07-15T19:04:13.958Z,0.90
2018-07-15T19:06:41.523Z,0.72
2018-07-15T19:09:08.908Z,0.82
2018-07-15T19:11:36.536Z,1.20
2018-07-15T19:14:04.367Z,1.35
2018-07-15T19:16:31.763Z,1.22
2018-07-15T19:18:59.411Z,1.20
2018-07-15T19:21:26.827Z,1.42
2018-07-15T19:23:54.250Z,1.57
2018-07-15T19:26:21.691Z,1.62
2018-07-15T19:28:49.117Z,2.00
2018-07-15T19:31:16.851Z,2.50
2018-07-15T19:33:44.404Z,2.27
2018-07-15T19:36:11.782Z,2.50
2018-07-15T19:38:39.288Z,2.40
2018-07-15T19:41:06.731Z,2.70
2018-07-15T19:43:34.387Z,3.00
2018-07-15T19:46:01.788Z,2.80
2018-07-15T19:48:29.187Z,3.50
2018-07-15T19:50:56.686Z,3.90
2018-07-15T19:53:24.173Z,3.70
2018-07-15T19:55:51.627Z,3.13
2018-07-15T19:58:19.048Z,3.07
2018-07-15T20:00:46.483Z,3.87
2018-07-15T20:03:13.865Z,3.43
2018-07-15T20:05:41.243Z,3.40
2018-07-15T20:08:08.634Z,3.97
2018-07-15T20:10:36.038Z,3.90
2018-07-15T20:13:03.447Z,3.73
2018-07-15T20:15:30.843Z,3.57
2018-07-15T20:17:58.267Z,4.10
2018-07-15T20:20:25.711Z,3.80
2018-07-15T20:22:53.211Z,3.80
2018-07-15T20:25:20.592Z,4.07
2018-07-15T20:27:48.284Z,3.93
2018-07-15T20:30:15.637Z,3.93
2018-07-15T20:32:43.120Z,4.03
2018-07-15T20:35:10.509Z,3.83
2018-07-15T20:37:37.919Z,4.20
2018-07-15T20:40:05.323Z,4.33
2018-07-15T20:42:32.722Z,4.50
2018-07-15T20:45:00.186Z,4.50
2018-07-15T20:47:27.549Z,5.13
2018-07-15T20:49:55.030Z,4.17
2018-07-15T20:52:22.415Z,5.30
2018-07-15T20:54:50.013Z,4.50
2018-07-15T20:57:17.343Z,4.90
2018-07-15T20:59:44.758Z,4.83
2018-07-15T21:02:12.137Z,4.80
2018-07-15T21:04:39.535Z,5.10
2018-07-15T21:07:06.968Z,4.77
2018-07-15T21:09:34.349Z,4.97
2018-07-15T21:12:01.762Z,4.83
2018-07-15T21:14:29.168Z,5.53
2018-07-15T21:16:56.720Z,5.10
2018-07-15T21:19:24.089Z,5.50
2018-07-15T21:21:51.489Z,5.80
2018-07-15T21:24:18.876Z,5.10
2018-07-15T21:26:46.245Z,4.90
2018-07-15T21:29:13.647Z,5.20
2018-07-15T21:31:41.044Z,4.77
2018-07-15T21:34:08.624Z,5.20
2018-07-15T21:36:36.207Z,5.20
2018-07-15T21:39:05.100Z,4.77
2018-07-15T21:41:32.547Z,5.03
2018-07-15T21:44:00.025Z,5.67
2018-07-15T21:46:27.320Z,5.23
2018-07-15T21:48:54.688Z,4.77
2018-07-15T21:51:22.108Z,4.50
2018-07-15T21:53:49.519Z,5.03
2018-07-15T21:56:16.936Z,5.23
2018-07-15T21:58:44.371Z,5.50
2018-07-15T22:01:11.756Z,5.63
2018-07-15T22:03:39.194Z,5.00
2018-07-15T22:06:17.637Z,4.77
2018-07-15T22:08:56.697Z,4.43
2018-07-15T22:11:24.094Z,4.33
2018-07-15T22:13:51.516Z,4.10
2018-07-15T22:16:18.880Z,3.90
2018-07-15T22:18:46.276Z,3.93
2018-07-15T22:21:13.673Z,4.00
2018-07-15T22:23:41.095Z,3.87
2018-07-15T22:26:08.536Z,3.77
2018-07-15T22:28:35.896Z,3.97
2018-07-15T22:31:03.290Z,3.50
2018-07-15T22:33:30.824Z,3.33
2018-07-15T22:35:58.181Z,3.30
2018-07-15T22:38:25.546Z,3.73
2018-07-15T22:40:53.000Z,3.47
2018-07-15T22:43:21.368Z,3.40
2018-07-15T22:45:48.747Z,3.40
2018-07-15T22:48:16.139Z,3.60
2018-07-15T22:50:43.523Z,3.57
2018-07-15T22:53:10.899Z,3.37
2018-07-15T22:55:38.302Z,3.27
2018-07-15T22:58:05.689Z,3.30
2018-07-15T23:00:33.120Z,3.50
2018-07-15T23:03:00.542Z,3.23
2018-07-15T23:05:43.320Z,3.47
2018-07-15T23:08:11.008Z,3.70
2018-07-15T23:10:38.415Z,3.70
2018-07-15T23:13:06.839Z,3.50
2018-07-15T23:15:34.695Z,3.70
2018-07-15T23:18:02.540Z,3.70
2018-07-15T23:20:30.847Z,3.80
2018-07-15T23:22:59.427Z,3.63
2018-07-15T23:25:27.220Z,3.70
2018-07-15T23:27:54.764Z,3.53
2018-07-15T23:30:23.014Z,3.60
2018-07-15T23:32:50.584Z,3.10
2018-07-15T23:35:18.124Z,2.93
2018-07-15T23:37:45.533Z,3.10
2018-07-15T23:40:13.061Z,3.10
2018-07-15T23:42:40.536Z,3.20
2018-07-15T23:45:07.937Z,3.03
2018-07-15T23:47:36.347Z,2.90
2018-07-15T23:50:04.422Z,3.10
2018-07-15T23:52:31.983Z,3.00
2018-07-15T23:54:59.394Z,2.70
2018-07-15T23:57:26.799Z,2.70
2018-07-15T23:59:54.364Z,2.77
